sensor_id;sensor_type;location;lat;lon;timestamp;P1;durP1;ratioP1;P2;durP2;ratioP2
41719;SDS011;27405;53.316;-6.294;2024-02-04T00:02:22;3.97;;;2.65;;
41719;SDS011;27405;53.316;-6.294;2024-02-04T00:04:50;4.30;;;2.80;;
41719;SDS011;27405;53.316;-6.294;2024-02-04T00:09:44;4.15;;;2.85;;
41719;SDS011;27405;53.316;-6.294;2024-02-04T00:12:10;4.28;;;2.83;;
41719;SDS011;27405;53.316;-6.294;2024-02-04T00:14:39;7.05;;;3.05;;
41719;SDS011;27405;53.316;-6.294;2024-02-04T00:17:05;5.82;;;2.90;;
41719;SDS011;27405;53.316;-6.294;2024-02-04T00:19:31;4.05;;;2.92;;
41719;SDS011;27405;53.316;-6.294;2024-02-04T00:21:56;4.32;;;2.75;;
41719;SDS011;27405;53.316;-6.294;2024-02-04T00:24:22;5.63;;;3.47;;
41719;SDS011;27405;53.316;-6.294;2024-02-04T00:26:48;4.78;;;3.20;;
41719;SDS011;27405;53.316;-6.294;2024-02-04T00:29:13;5.07;;;3.13;;
41719;SDS011;27405;53.316;-6.294;2024-02-04T00:31:39;5.32;;;3.47;;
41719;SDS011;27405;53.316;-6.294;2024-02-04T00:34:05;6.53;;;3.75;;
41719;SDS011;27405;53.316;-6.294;2024-02-04T00:36:31;5.43;;;3.38;;
41719;SDS011;27405;53.316;-6.294;2024-02-04T00:38:56;8.10;;;4.38;;
41719;SDS011;27405;53.316;-6.294;2024-02-04T00:41:22;8.82;;;4.63;;
41719;SDS011;27405;53.316;-6.294;2024-02-04T00:43:48;5.80;;;3.50;;
41719;SDS011;27405;53.316;-6.294;2024-02-04T00:46:13;3.78;;;3.00;;
41719;SDS011;27405;53.316;-6.294;2024-02-04T00:48:39;4.38;;;2.80;;
41719;SDS011;27405;53.316;-6.294;2024-02-04T00:51:07;4.07;;;2.80;;
41719;SDS011;27405;53.316;-6.294;2024-02-04T00:53:33;4.22;;;2.65;;
41719;SDS011;27405;53.316;-6.294;2024-02-04T00:56:00;3.47;;;2.47;;
41719;SDS011;27405;53.316;-6.294;2024-02-04T00:58:27;4.03;;;2.30;;
41719;SDS011;27405;53.316;-6.294;2024-02-04T01:00:52;4.03;;;2.78;;
41719;SDS011;27405;53.316;-6.294;2024-02-04T01:03:18;4.75;;;2.67;;
41719;SDS011;27405;53.316;-6.294;2024-02-04T01:05:44;6.90;;;3.38;;
41719;SDS011;27405;53.316;-6.294;2024-02-04T01:08:09;6.22;;;3.08;;
41719;SDS011;27405;53.316;-6.294;2024-02-04T01:10:35;5.55;;;3.17;;
41719;SDS011;27405;53.316;-6.294;2024-02-04T01:13:01;4.30;;;3.05;;
41719;SDS011;27405;53.316;-6.294;2024-02-04T01:15:26;3.53;;;2.67;;
41719;SDS011;27405;53.316;-6.294;2024-02-04T01:17:52;5.18;;;3.08;;
41719;SDS011;27405;53.316;-6.294;2024-02-04T01:20:18;3.45;;;2.50;;
41719;SDS011;27405;53.316;-6.294;2024-02-04T01:22:43;2.95;;;2.30;;
41719;SDS011;27405;53.316;-6.294;2024-02-04T01:25:09;5.82;;;2.83;;
41719;SDS011;27405;53.316;-6.294;2024-02-04T01:27:35;3.03;;;2.38;;
41719;SDS011;27405;53.316;-6.294;2024-02-04T01:30:00;5.45;;;2.63;;
41719;SDS011;27405;53.316;-6.294;2024-02-04T01:32:26;3.08;;;2.50;;
41719;SDS011;27405;53.316;-6.294;2024-02-04T01:34:52;3.50;;;2.67;;
41719;SDS011;27405;53.316;-6.294;2024-02-04T01:37:17;3.33;;;2.50;;
41719;SDS011;27405;53.316;-6.294;2024-02-04T01:39:43;4.32;;;2.67;;
41719;SDS011;27405;53.316;-6.294;2024-02-04T01:42:09;4.20;;;2.60;;
41719;SDS011;27405;53.316;-6.294;2024-02-04T01:44:35;4.20;;;2.90;;
41719;SDS011;27405;53.316;-6.294;2024-02-04T01:47:01;3.85;;;2.53;;
41719;SDS011;27405;53.316;-6.294;2024-02-04T01:49:27;3.13;;;2.38;;
41719;SDS011;27405;53.316;-6.294;2024-02-04T01:51:53;3.55;;;2.58;;
41719;SDS011;27405;53.316;-6.294;2024-02-04T01:54:18;3.78;;;2.80;;
41719;SDS011;27405;53.316;-6.294;2024-02-04T01:56:49;4.38;;;2.75;;
41719;SDS011;27405;53.316;-6.294;2024-02-04T01:59:17;3.85;;;2.50;;
41719;SDS011;27405;53.316;-6.294;2024-02-04T02:01:43;4.30;;;2.42;;
41719;SDS011;27405;53.316;-6.294;2024-02-04T02:04:09;2.70;;;2.00;;
41719;SDS011;27405;53.316;-6.294;2024-02-04T02:06:35;3.00;;;2.20;;
41719;SDS011;27405;53.316;-6.294;2024-02-04T02:09:06;3.35;;;2.30;;
41719;SDS011;27405;53.316;-6.294;2024-02-04T02:11:42;3.08;;;2.20;;
41719;SDS011;27405;53.316;-6.294;2024-02-04T02:14:16;3.53;;;2.30;;
41719;SDS011;27405;53.316;-6.294;2024-02-04T02:16:44;3.47;;;2.20;;
41719;SDS011;27405;53.316;-6.294;2024-02-04T02:26:47;2.15;;;1.95;;
41719;SDS011;27405;53.316;-6.294;2024-02-04T02:29:14;2.95;;;2.25;;
41719;SDS011;27405;53.316;-6.294;2024-02-04T02:31:40;4.45;;;2.08;;
41719;SDS011;27405;53.316;-6.294;2024-02-04T02:34:07;3.33;;;1.98;;
41719;SDS011;27405;53.316;-6.294;2024-02-04T02:36:37;3.42;;;2.08;;
41719;SDS011;27405;53.316;-6.294;2024-02-04T02:39:18;2.83;;;1.90;;
41719;SDS011;27405;53.316;-6.294;2024-02-04T02:41:49;3.70;;;1.90;;
41719;SDS011;27405;53.316;-6.294;2024-02-04T02:44:18;3.00;;;1.90;;
41719;SDS011;27405;53.316;-6.294;2024-02-04T02:46:46;2.17;;;1.92;;
41719;SDS011;27405;53.316;-6.294;2024-02-04T02:49:13;3.60;;;1.88;;
41719;SDS011;27405;53.316;-6.294;2024-02-04T02:51:39;1.88;;;1.70;;
41719;SDS011;27405;53.316;-6.294;2024-02-04T02:54:04;2.78;;;1.67;;
41719;SDS011;27405;53.316;-6.294;2024-02-04T02:56:30;1.48;;;1.38;;
41719;SDS011;27405;53.316;-6.294;2024-02-04T02:58:56;1.65;;;1.55;;
41719;SDS011;27405;53.316;-6.294;2024-02-04T03:01:21;2.50;;;1.48;;
41719;SDS011;27405;53.316;-6.294;2024-02-04T03:03:48;1.40;;;1.30;;
41719;SDS011;27405;53.316;-6.294;2024-02-04T03:06:14;1.77;;;1.40;;
41719;SDS011;27405;53.316;-6.294;2024-02-04T03:08:40;1.30;;;1.20;;
41719;SDS011;27405;53.316;-6.294;2024-02-04T03:11:05;2.20;;;1.20;;
41719;SDS011;27405;53.316;-6.294;2024-02-04T03:13:31;1.70;;;1.02;;
41719;SDS011;27405;53.316;-6.294;2024-02-04T03:15:57;2.65;;;1.20;;
41719;SDS011;27405;53.316;-6.294;2024-02-04T03:18:23;2.38;;;1.10;;
41719;SDS011;27405;53.316;-6.294;2024-02-04T03:20:48;1.13;;;0.90;;
41719;SDS011;27405;53.316;-6.294;2024-02-04T03:23:14;2.75;;;1.13;;
41719;SDS011;27405;53.316;-6.294;2024-02-04T03:25:40;3.05;;;1.10;;
41719;SDS011;27405;53.316;-6.294;2024-02-04T03:28:06;0.70;;;0.70;;
41719;SDS011;27405;53.316;-6.294;2024-02-04T03:30:32;0.90;;;0.80;;
41719;SDS011;27405;53.316;-6.294;2024-02-04T03:32:57;0.90;;;0.80;;
41719;SDS011;27405;53.316;-6.294;2024-02-04T03:35:23;0.50;;;0.50;;
41719;SDS011;27405;53.316;-6.294;2024-02-04T03:37:48;0.70;;;0.70;;
41719;SDS011;27405;53.316;-6.294;2024-02-04T03:40:14;0.60;;;0.60;;
41719;SDS011;27405;53.316;-6.294;2024-02-04T03:42:40;1.27;;;0.73;;
41719;SDS011;27405;53.316;-6.294;2024-02-04T03:45:06;0.68;;;0.68;;
41719;SDS011;27405;53.316;-6.294;2024-02-04T03:47:32;0.80;;;0.70;;
41719;SDS011;27405;53.316;-6.294;2024-02-04T03:49:57;0.80;;;0.60;;
41719;SDS011;27405;53.316;-6.294;2024-02-04T03:52:23;0.60;;;0.60;;
41719;SDS011;27405;53.316;-6.294;2024-02-04T03:54:49;1.27;;;0.95;;
41719;SDS011;27405;53.316;-6.294;2024-02-04T03:57:14;1.25;;;0.80;;
41719;SDS011;27405;53.316;-6.294;2024-02-04T03:59:40;0.80;;;0.73;;
41719;SDS011;27405;53.316;-6.294;2024-02-04T04:02:09;2.03;;;0.77;;
41719;SDS011;27405;53.316;-6.294;2024-02-04T04:04:35;1.02;;;0.93;;
41719;SDS011;27405;53.316;-6.294;2024-02-04T04:07:00;1.00;;;0.90;;
41719;SDS011;27405;53.316;-6.294;2024-02-04T04:09:26;0.90;;;0.75;;
41719;SDS011;27405;53.316;-6.294;2024-02-04T04:11:52;2.65;;;0.93;;
41719;SDS011;27405;53.316;-6.294;2024-02-04T04:14:17;1.65;;;0.93;;
41719;SDS011;27405;53.316;-6.294;2024-02-04T04:16:43;1.88;;;0.80;;
41719;SDS011;27405;53.316;-6.294;2024-02-04T04:19:08;1.52;;;0.80;;
41719;SDS011;27405;53.316;-6.294;2024-02-04T04:21:34;1.27;;;0.60;;
41719;SDS011;27405;53.316;-6.294;2024-02-04T04:24:02;0.60;;;0.57;;
41719;SDS011;27405;53.316;-6.294;2024-02-04T04:26:28;0.57;;;0.57;;
41719;SDS011;27405;53.316;-6.294;2024-02-04T04:28:54;0.70;;;0.70;;
41719;SDS011;27405;53.316;-6.294;2024-02-04T04:31:19;1.15;;;0.70;;
41719;SDS011;27405;53.316;-6.294;2024-02-04T04:33:45;0.73;;;0.55;;
41719;SDS011;27405;53.316;-6.294;2024-02-04T04:36:11;0.77;;;0.70;;
41719;SDS011;27405;53.316;-6.294;2024-02-04T04:38:36;1.27;;;0.82;;
41719;SDS011;27405;53.316;-6.294;2024-02-04T04:41:02;0.77;;;0.50;;
41719;SDS011;27405;53.316;-6.294;2024-02-04T04:43:27;0.40;;;0.40;;
41719;SDS011;27405;53.316;-6.294;2024-02-04T04:45:53;0.85;;;0.50;;
41719;SDS011;27405;53.316;-6.294;2024-02-04T04:48:19;1.50;;;0.50;;
41719;SDS011;27405;53.316;-6.294;2024-02-04T04:50:45;1.88;;;0.30;;
41719;SDS011;27405;53.316;-6.294;2024-02-04T04:53:11;0.47;;;0.47;;
41719;SDS011;27405;53.316;-6.294;2024-02-04T04:55:37;0.70;;;0.40;;
41719;SDS011;27405;53.316;-6.294;2024-02-04T04:58:02;0.30;;;0.30;;
41719;SDS011;27405;53.316;-6.294;2024-02-04T05:00:28;1.20;;;0.30;;
41719;SDS011;27405;53.316;-6.294;2024-02-04T05:02:54;0.55;;;0.30;;
41719;SDS011;27405;53.316;-6.294;2024-02-04T05:05:19;0.55;;;0.30;;
41719;SDS011;27405;53.316;-6.294;2024-02-04T05:07:45;0.65;;;0.40;;
41719;SDS011;27405;53.316;-6.294;2024-02-04T05:10:12;1.40;;;0.30;;
41719;SDS011;27405;53.316;-6.294;2024-02-04T05:12:37;0.38;;;0.25;;
41719;SDS011;27405;53.316;-6.294;2024-02-04T05:15:04;0.30;;;0.30;;
41719;SDS011;27405;53.316;-6.294;2024-02-04T05:17:30;0.38;;;0.20;;
41719;SDS011;27405;53.316;-6.294;2024-02-04T05:19:57;0.65;;;0.30;;
41719;SDS011;27405;53.316;-6.294;2024-02-04T05:22:23;0.30;;;0.30;;
41719;SDS011;27405;53.316;-6.294;2024-02-04T05:24:48;0.38;;;0.22;;
41719;SDS011;27405;53.316;-6.294;2024-02-04T05:27:14;0.35;;;0.35;;
41719;SDS011;27405;53.316;-6.294;2024-02-04T05:29:40;2.05;;;0.47;;
41719;SDS011;27405;53.316;-6.294;2024-02-04T05:32:05;0.52;;;0.30;;
41719;SDS011;27405;53.316;-6.294;2024-02-04T05:34:32;0.95;;;0.30;;
41719;SDS011;27405;53.316;-6.294;2024-02-04T05:36:59;0.30;;;0.30;;
41719;SDS011;27405;53.316;-6.294;2024-02-04T05:39:25;0.30;;;0.30;;
41719;SDS011;27405;53.316;-6.294;2024-02-04T05:41:51;0.65;;;0.45;;
41719;SDS011;27405;53.316;-6.294;2024-02-04T05:44:16;0.35;;;0.35;;
41719;SDS011;27405;53.316;-6.294;2024-02-04T05:46:42;0.60;;;0.30;;
41719;SDS011;27405;53.316;-6.294;2024-02-04T05:49:08;0.30;;;0.30;;
41719;SDS011;27405;53.316;-6.294;2024-02-04T05:51:39;0.30;;;0.30;;
41719;SDS011;27405;53.316;-6.294;2024-02-04T05:54:06;0.55;;;0.40;;
41719;SDS011;27405;53.316;-6.294;2024-02-04T05:56:32;0.30;;;0.30;;
41719;SDS011;27405;53.316;-6.294;2024-02-04T05:58:57;0.63;;;0.30;;
41719;SDS011;27405;53.316;-6.294;2024-02-04T06:01:23;0.30;;;0.30;;
41719;SDS011;27405;53.316;-6.294;2024-02-04T06:03:49;0.20;;;0.20;;
41719;SDS011;27405;53.316;-6.294;2024-02-04T06:06:15;1.63;;;0.30;;
41719;SDS011;27405;53.316;-6.294;2024-02-04T06:08:41;0.30;;;0.30;;
41719;SDS011;27405;53.316;-6.294;2024-02-04T06:11:11;1.00;;;0.30;;
41719;SDS011;27405;53.316;-6.294;2024-02-04T06:13:40;0.35;;;0.28;;
41719;SDS011;27405;53.316;-6.294;2024-02-04T06:16:09;0.43;;;0.40;;
41719;SDS011;27405;53.316;-6.294;2024-02-04T06:18:38;0.50;;;0.50;;
41719;SDS011;27405;53.316;-6.294;2024-02-04T06:21:04;0.80;;;0.38;;
41719;SDS011;27405;53.316;-6.294;2024-02-04T06:23:30;7.32;;;3.38;;
41719;SDS011;27405;53.316;-6.294;2024-02-04T06:25:56;6.90;;;2.58;;
41719;SDS011;27405;53.316;-6.294;2024-02-04T06:28:22;8.00;;;3.53;;
41719;SDS011;27405;53.316;-6.294;2024-02-04T06:30:48;8.60;;;3.55;;
41719;SDS011;27405;53.316;-6.294;2024-02-04T06:33:14;5.72;;;2.80;;
41719;SDS011;27405;53.316;-6.294;2024-02-04T06:35:40;9.07;;;4.03;;
41719;SDS011;27405;53.316;-6.294;2024-02-04T06:38:05;7.20;;;2.58;;
41719;SDS011;27405;53.316;-6.294;2024-02-04T06:40:31;7.68;;;2.40;;
41719;SDS011;27405;53.316;-6.294;2024-02-04T06:42:57;12.10;;;4.18;;
41719;SDS011;27405;53.316;-6.294;2024-02-04T06:45:22;10.73;;;4.10;;
41719;SDS011;27405;53.316;-6.294;2024-02-04T06:47:48;18.60;;;6.13;;
41719;SDS011;27405;53.316;-6.294;2024-02-04T06:50:14;22.83;;;7.95;;
41719;SDS011;27405;53.316;-6.294;2024-02-04T06:52:41;18.30;;;5.93;;
41719;SDS011;27405;53.316;-6.294;2024-02-04T06:55:08;14.85;;;4.60;;
41719;SDS011;27405;53.316;-6.294;2024-02-04T06:57:33;12.23;;;3.50;;
41719;SDS011;27405;53.316;-6.294;2024-02-04T06:59:59;15.13;;;4.60;;
41719;SDS011;27405;53.316;-6.294;2024-02-04T07:02:25;16.40;;;4.97;;
41719;SDS011;27405;53.316;-6.294;2024-02-04T07:04:51;16.95;;;5.00;;
41719;SDS011;27405;53.316;-6.294;2024-02-04T07:07:17;19.02;;;5.90;;
41719;SDS011;27405;53.316;-6.294;2024-02-04T07:09:43;23.83;;;9.20;;
41719;SDS011;27405;53.316;-6.294;2024-02-04T07:12:08;22.27;;;11.07;;
41719;SDS011;27405;53.316;-6.294;2024-02-04T07:14:34;25.90;;;12.95;;
41719;SDS011;27405;53.316;-6.294;2024-02-04T07:17:00;21.92;;;12.13;;
41719;SDS011;27405;53.316;-6.294;2024-02-04T07:19:25;25.60;;;14.10;;
41719;SDS011;27405;53.316;-6.294;2024-02-04T07:21:51;26.13;;;12.43;;
41719;SDS011;27405;53.316;-6.294;2024-02-04T07:24:17;21.02;;;10.60;;
41719;SDS011;27405;53.316;-6.294;2024-02-04T07:26:45;17.88;;;9.57;;
41719;SDS011;27405;53.316;-6.294;2024-02-04T07:29:12;23.23;;;10.95;;
41719;SDS011;27405;53.316;-6.294;2024-02-04T07:31:38;20.48;;;9.77;;
41719;SDS011;27405;53.316;-6.294;2024-02-04T07:34:04;16.75;;;7.57;;
41719;SDS011;27405;53.316;-6.294;2024-02-04T07:36:30;14.00;;;6.60;;
41719;SDS011;27405;53.316;-6.294;2024-02-04T07:38:56;15.88;;;6.25;;
41719;SDS011;27405;53.316;-6.294;2024-02-04T07:41:22;15.18;;;6.07;;
41719;SDS011;27405;53.316;-6.294;2024-02-04T07:43:47;11.10;;;6.03;;
41719;SDS011;27405;53.316;-6.294;2024-02-04T07:46:14;13.18;;;4.50;;
41719;SDS011;27405;53.316;-6.294;2024-02-04T07:48:39;10.32;;;4.00;;
41719;SDS011;27405;53.316;-6.294;2024-02-04T07:51:06;9.18;;;2.60;;
41719;SDS011;27405;53.316;-6.294;2024-02-04T07:56:01;7.27;;;2.60;;
41719;SDS011;27405;53.316;-6.294;2024-02-04T07:58:28;10.80;;;4.38;;
41719;SDS011;27405;53.316;-6.294;2024-02-04T08:00:54;16.25;;;6.78;;
41719;SDS011;27405;53.316;-6.294;2024-02-04T08:03:20;17.30;;;8.95;;
41719;SDS011;27405;53.316;-6.294;2024-02-04T08:05:45;13.60;;;4.97;;
41719;SDS011;27405;53.316;-6.294;2024-02-04T08:08:11;10.85;;;4.22;;
41719;SDS011;27405;53.316;-6.294;2024-02-04T08:10:37;13.05;;;4.32;;
41719;SDS011;27405;53.316;-6.294;2024-02-04T08:13:02;16.08;;;4.90;;
41719;SDS011;27405;53.316;-6.294;2024-02-04T08:15:28;15.02;;;4.60;;
41719;SDS011;27405;53.316;-6.294;2024-02-04T08:17:54;15.15;;;5.60;;
41719;SDS011;27405;53.316;-6.294;2024-02-04T08:20:20;15.43;;;4.70;;
41719;SDS011;27405;53.316;-6.294;2024-02-04T08:22:46;13.95;;;4.50;;
41719;SDS011;27405;53.316;-6.294;2024-02-04T08:25:12;12.23;;;3.55;;
41719;SDS011;27405;53.316;-6.294;2024-02-04T08:27:38;11.48;;;3.30;;
41719;SDS011;27405;53.316;-6.294;2024-02-04T08:30:04;13.70;;;2.95;;
41719;SDS011;27405;53.316;-6.294;2024-02-04T08:32:30;14.35;;;3.63;;
41719;SDS011;27405;53.316;-6.294;2024-02-04T08:34:56;10.20;;;3.15;;
41719;SDS011;27405;53.316;-6.294;2024-02-04T08:37:22;13.85;;;3.75;;
41719;SDS011;27405;53.316;-6.294;2024-02-04T08:39:48;6.25;;;2.30;;
41719;SDS011;27405;53.316;-6.294;2024-02-04T08:42:14;5.28;;;2.45;;
41719;SDS011;27405;53.316;-6.294;2024-02-04T08:44:40;4.75;;;1.52;;
41719;SDS011;27405;53.316;-6.294;2024-02-04T08:47:06;3.72;;;1.20;;
41719;SDS011;27405;53.316;-6.294;2024-02-04T08:49:37;4.70;;;1.30;;
41719;SDS011;27405;53.316;-6.294;2024-02-04T08:52:03;2.20;;;0.70;;
41719;SDS011;27405;53.316;-6.294;2024-02-04T08:54:29;1.98;;;0.70;;
41719;SDS011;27405;53.316;-6.294;2024-02-04T08:56:54;1.30;;;0.50;;
41719;SDS011;27405;53.316;-6.294;2024-02-04T08:59:20;2.95;;;0.60;;
41719;SDS011;27405;53.316;-6.294;2024-02-04T09:01:46;2.67;;;0.60;;
41719;SDS011;27405;53.316;-6.294;2024-02-04T09:04:11;2.10;;;0.70;;
41719;SDS011;27405;53.316;-6.294;2024-02-04T09:06:37;1.40;;;0.50;;
41719;SDS011;27405;53.316;-6.294;2024-02-04T09:09:03;6.22;;;0.80;;
41719;SDS011;27405;53.316;-6.294;2024-02-04T09:11:29;1.40;;;0.50;;
41719;SDS011;27405;53.316;-6.294;2024-02-04T09:13:54;1.08;;;0.50;;
41719;SDS011;27405;53.316;-6.294;2024-02-04T09:16:20;1.02;;;0.60;;
41719;SDS011;27405;53.316;-6.294;2024-02-04T09:18:46;2.90;;;0.80;;
41719;SDS011;27405;53.316;-6.294;2024-02-04T09:21:12;1.00;;;0.52;;
41719;SDS011;27405;53.316;-6.294;2024-02-04T09:23:38;2.10;;;0.60;;
41719;SDS011;27405;53.316;-6.294;2024-02-04T09:26:04;0.73;;;0.60;;
41719;SDS011;27405;53.316;-6.294;2024-02-04T09:28:30;3.95;;;0.60;;
41719;SDS011;27405;53.316;-6.294;2024-02-04T09:30:55;1.27;;;0.50;;
41719;SDS011;27405;53.316;-6.294;2024-02-04T09:33:22;3.42;;;0.73;;
41719;SDS011;27405;53.316;-6.294;2024-02-04T09:35:47;3.10;;;0.90;;
41719;SDS011;27405;53.316;-6.294;2024-02-04T09:38:14;1.73;;;0.60;;
41719;SDS011;27405;53.316;-6.294;2024-02-04T09:40:40;1.02;;;0.65;;
41719;SDS011;27405;53.316;-6.294;2024-02-04T09:43:06;2.60;;;0.80;;
41719;SDS011;27405;53.316;-6.294;2024-02-04T09:45:32;1.95;;;1.00;;
41719;SDS011;27405;53.316;-6.294;2024-02-04T09:47:59;2.10;;;0.98;;
41719;SDS011;27405;53.316;-6.294;2024-02-04T09:50:27;3.35;;;1.10;;
41719;SDS011;27405;53.316;-6.294;2024-02-04T09:52:55;4.75;;;1.17;;
41719;SDS011;27405;53.316;-6.294;2024-02-04T09:55:24;9.32;;;1.88;;
41719;SDS011;27405;53.316;-6.294;2024-02-04T09:57:51;5.13;;;0.98;;
41719;SDS011;27405;53.316;-6.294;2024-02-04T10:00:20;3.67;;;1.05;;
41719;SDS011;27405;53.316;-6.294;2024-02-04T10:02:47;6.32;;;1.40;;
41719;SDS011;27405;53.316;-6.294;2024-02-04T10:05:13;2.67;;;1.15;;
41719;SDS011;27405;53.316;-6.294;2024-02-04T10:07:42;8.55;;;1.27;;
41719;SDS011;27405;53.316;-6.294;2024-02-04T10:10:08;7.85;;;1.95;;
41719;SDS011;27405;53.316;-6.294;2024-02-04T10:12:36;7.57;;;1.90;;
41719;SDS011;27405;53.316;-6.294;2024-02-04T10:15:03;8.65;;;3.13;;
41719;SDS011;27405;53.316;-6.294;2024-02-04T10:17:30;5.07;;;1.40;;
41719;SDS011;27405;53.316;-6.294;2024-02-04T10:19:56;7.10;;;1.42;;
41719;SDS011;27405;53.316;-6.294;2024-02-04T10:22:22;6.43;;;1.65;;
41719;SDS011;27405;53.316;-6.294;2024-02-04T10:24:51;8.50;;;1.77;;
41719;SDS011;27405;53.316;-6.294;2024-02-04T10:27:17;7.60;;;1.70;;
41719;SDS011;27405;53.316;-6.294;2024-02-04T10:29:43;8.82;;;2.00;;
41719;SDS011;27405;53.316;-6.294;2024-02-04T10:32:09;6.80;;;1.50;;
41719;SDS011;27405;53.316;-6.294;2024-02-04T10:34:38;6.20;;;1.52;;
41719;SDS011;27405;53.316;-6.294;2024-02-04T10:37:04;5.93;;;1.42;;
41719;SDS011;27405;53.316;-6.294;2024-02-04T10:39:30;5.03;;;1.52;;
41719;SDS011;27405;53.316;-6.294;2024-02-04T10:41:56;7.22;;;2.17;;
41719;SDS011;27405;53.316;-6.294;2024-02-04T10:44:26;7.63;;;1.80;;
41719;SDS011;27405;53.316;-6.294;2024-02-04T10:46:55;9.45;;;1.90;;
41719;SDS011;27405;53.316;-6.294;2024-02-04T10:49:21;8.70;;;1.70;;
41719;SDS011;27405;53.316;-6.294;2024-02-04T10:51:48;9.80;;;1.90;;
41719;SDS011;27405;53.316;-6.294;2024-02-04T10:54:16;9.40;;;2.42;;
41719;SDS011;27405;53.316;-6.294;2024-02-04T10:56:45;8.57;;;2.10;;
41719;SDS011;27405;53.316;-6.294;2024-02-04T10:59:14;12.13;;;2.25;;
41719;SDS011;27405;53.316;-6.294;2024-02-04T11:01:46;5.95;;;1.80;;
41719;SDS011;27405;53.316;-6.294;2024-02-04T11:06:41;9.85;;;2.13;;
41719;SDS011;27405;53.316;-6.294;2024-02-04T11:09:11;5.78;;;1.77;;
41719;SDS011;27405;53.316;-6.294;2024-02-04T11:11:39;5.28;;;1.95;;
41719;SDS011;27405;53.316;-6.294;2024-02-04T11:14:08;7.50;;;1.80;;
41719;SDS011;27405;53.316;-6.294;2024-02-04T11:27:40;16.38;;;2.60;;
41719;SDS011;27405;53.316;-6.294;2024-02-04T11:30:06;16.05;;;2.88;;
41719;SDS011;27405;53.316;-6.294;2024-02-04T11:32:34;16.35;;;3.00;;
41719;SDS011;27405;53.316;-6.294;2024-02-04T11:35:00;15.13;;;3.10;;
41719;SDS011;27405;53.316;-6.294;2024-02-04T11:37:28;18.02;;;3.75;;
41719;SDS011;27405;53.316;-6.294;2024-02-04T11:39:54;18.45;;;3.58;;
41719;SDS011;27405;53.316;-6.294;2024-02-04T11:42:25;15.13;;;3.45;;
41719;SDS011;27405;53.316;-6.294;2024-02-04T11:45:06;17.85;;;4.00;;
41719;SDS011;27405;53.316;-6.294;2024-02-04T11:47:33;23.83;;;4.10;;
41719;SDS011;27405;53.316;-6.294;2024-02-04T11:50:00;19.08;;;3.75;;
41719;SDS011;27405;53.316;-6.294;2024-02-04T11:52:28;19.73;;;3.95;;
41719;SDS011;27405;53.316;-6.294;2024-02-04T11:54:54;19.45;;;4.10;;
41719;SDS011;27405;53.316;-6.294;2024-02-04T11:57:20;24.90;;;4.72;;
41719;SDS011;27405;53.316;-6.294;2024-02-04T11:59:47;26.13;;;4.75;;
41719;SDS011;27405;53.316;-6.294;2024-02-04T12:02:17;22.38;;;4.50;;
41719;SDS011;27405;53.316;-6.294;2024-02-04T12:04:43;28.05;;;5.75;;
41719;SDS011;27405;53.316;-6.294;2024-02-04T12:07:10;28.30;;;5.43;;
41719;SDS011;27405;53.316;-6.294;2024-02-04T12:09:36;20.33;;;4.30;;
41719;SDS011;27405;53.316;-6.294;2024-02-04T12:12:03;23.33;;;4.90;;
41719;SDS011;27405;53.316;-6.294;2024-02-04T12:14:30;27.10;;;5.47;;
41719;SDS011;27405;53.316;-6.294;2024-02-04T12:16:56;23.15;;;5.10;;
41719;SDS011;27405;53.316;-6.294;2024-02-04T12:19:25;29.38;;;5.75;;
41719;SDS011;27405;53.316;-6.294;2024-02-04T12:21:52;31.63;;;5.78;;
41719;SDS011;27405;53.316;-6.294;2024-02-04T12:24:20;34.33;;;6.30;;
41719;SDS011;27405;53.316;-6.294;2024-02-04T12:26:46;31.30;;;5.68;;
41719;SDS011;27405;53.316;-6.294;2024-02-04T12:29:12;26.85;;;5.32;;
41719;SDS011;27405;53.316;-6.294;2024-02-04T12:31:39;26.65;;;5.68;;
41719;SDS011;27405;53.316;-6.294;2024-02-04T12:34:05;26.80;;;6.03;;
41719;SDS011;27405;53.316;-6.294;2024-02-04T12:36:33;31.90;;;6.22;;
41719;SDS011;27405;53.316;-6.294;2024-02-04T12:39:02;43.38;;;6.72;;
41719;SDS011;27405;53.316;-6.294;2024-02-04T12:41:34;33.13;;;6.35;;
41719;SDS011;27405;53.316;-6.294;2024-02-04T12:44:00;29.30;;;5.90;;
41719;SDS011;27405;53.316;-6.294;2024-02-04T12:46:28;32.55;;;6.00;;
41719;SDS011;27405;53.316;-6.294;2024-02-04T12:48:57;31.55;;;6.35;;
41719;SDS011;27405;53.316;-6.294;2024-02-04T12:51:27;32.03;;;6.40;;
41719;SDS011;27405;53.316;-6.294;2024-02-04T12:54:06;30.98;;;5.60;;
41719;SDS011;27405;53.316;-6.294;2024-02-04T12:59:08;36.05;;;6.90;;
41719;SDS011;27405;53.316;-6.294;2024-02-04T13:01:35;31.90;;;6.63;;
41719;SDS011;27405;53.316;-6.294;2024-02-04T13:04:04;34.28;;;6.30;;
41719;SDS011;27405;53.316;-6.294;2024-02-04T13:06:30;29.70;;;6.20;;
41719;SDS011;27405;53.316;-6.294;2024-02-04T13:08:57;34.25;;;6.68;;
41719;SDS011;27405;53.316;-6.294;2024-02-04T13:11:23;29.50;;;6.30;;
41719;SDS011;27405;53.316;-6.294;2024-02-04T13:13:50;33.00;;;7.10;;
41719;SDS011;27405;53.316;-6.294;2024-02-04T13:16:16;31.95;;;5.65;;
41719;SDS011;27405;53.316;-6.294;2024-02-04T13:18:44;39.92;;;6.85;;
41719;SDS011;27405;53.316;-6.294;2024-02-04T13:21:16;37.95;;;7.53;;
41719;SDS011;27405;53.316;-6.294;2024-02-04T13:23:45;35.28;;;6.88;;
41719;SDS011;27405;53.316;-6.294;2024-02-04T13:26:10;31.75;;;6.93;;
41719;SDS011;27405;53.316;-6.294;2024-02-04T13:28:36;37.03;;;7.95;;
41719;SDS011;27405;53.316;-6.294;2024-02-04T13:31:03;42.80;;;7.97;;
41719;SDS011;27405;53.316;-6.294;2024-02-04T13:33:29;39.13;;;7.32;;
41719;SDS011;27405;53.316;-6.294;2024-02-04T13:35:55;36.00;;;6.40;;
41719;SDS011;27405;53.316;-6.294;2024-02-04T13:38:21;31.63;;;6.50;;
41719;SDS011;27405;53.316;-6.294;2024-02-04T13:40:47;35.22;;;7.32;;
41719;SDS011;27405;53.316;-6.294;2024-02-04T13:43:13;33.92;;;7.43;;
41719;SDS011;27405;53.316;-6.294;2024-02-04T13:45:39;34.70;;;7.18;;
41719;SDS011;27405;53.316;-6.294;2024-02-04T13:48:05;36.97;;;6.68;;
41719;SDS011;27405;53.316;-6.294;2024-02-04T13:50:31;31.38;;;6.10;;
41719;SDS011;27405;53.316;-6.294;2024-02-04T13:52:57;39.78;;;6.88;;
41719;SDS011;27405;53.316;-6.294;2024-02-04T13:55:23;39.45;;;6.85;;
41719;SDS011;27405;53.316;-6.294;2024-02-04T13:57:49;39.50;;;7.20;;
41719;SDS011;27405;53.316;-6.294;2024-02-04T14:00:15;37.13;;;6.80;;
41719;SDS011;27405;53.316;-6.294;2024-02-04T14:02:42;35.05;;;6.53;;
41719;SDS011;27405;53.316;-6.294;2024-02-04T14:05:08;36.08;;;7.50;;
41719;SDS011;27405;53.316;-6.294;2024-02-04T14:07:34;31.98;;;6.45;;
41719;SDS011;27405;53.316;-6.294;2024-02-04T14:10:00;38.72;;;8.25;;
41719;SDS011;27405;53.316;-6.294;2024-02-04T14:12:25;33.88;;;6.75;;
41719;SDS011;27405;53.316;-6.294;2024-02-04T14:14:51;34.88;;;6.97;;
41719;SDS011;27405;53.316;-6.294;2024-02-04T14:17:19;38.25;;;7.28;;
41719;SDS011;27405;53.316;-6.294;2024-02-04T14:19:45;38.95;;;7.00;;
41719;SDS011;27405;53.316;-6.294;2024-02-04T14:22:14;38.10;;;7.40;;
41719;SDS011;27405;53.316;-6.294;2024-02-04T14:24:41;36.72;;;7.53;;
41719;SDS011;27405;53.316;-6.294;2024-02-04T14:27:07;40.45;;;7.90;;
41719;SDS011;27405;53.316;-6.294;2024-02-04T14:29:32;29.95;;;6.40;;
41719;SDS011;27405;53.316;-6.294;2024-02-04T14:31:58;34.95;;;7.22;;
41719;SDS011;27405;53.316;-6.294;2024-02-04T14:34:23;28.25;;;6.32;;
41719;SDS011;27405;53.316;-6.294;2024-02-04T14:36:50;39.72;;;7.45;;
41719;SDS011;27405;53.316;-6.294;2024-02-04T14:39:16;39.35;;;7.03;;
41719;SDS011;27405;53.316;-6.294;2024-02-04T14:41:41;40.20;;;6.93;;
41719;SDS011;27405;53.316;-6.294;2024-02-04T14:44:07;38.72;;;7.85;;
41719;SDS011;27405;53.316;-6.294;2024-02-04T14:46:35;37.25;;;6.35;;
41719;SDS011;27405;53.316;-6.294;2024-02-04T14:49:04;38.08;;;7.22;;
41719;SDS011;27405;53.316;-6.294;2024-02-04T14:51:30;38.90;;;7.07;;
41719;SDS011;27405;53.316;-6.294;2024-02-04T14:53:56;35.15;;;7.30;;